Terminal Aerodrome Forecast
Issued by NWS Albany, NY

Home | Current Version | Previous Version | Text Only | Print | Product List | Glossary On
Versions: 1 2 3 4 5 6 7 8 9 10 11 12 13 14 15
019
FTUS41 KALY 222322 AAA
TAFALB
TAF AMD
KALB 222322Z 2223/2318 36004KT P6SM FEW250
     FM231700 33006KT P6SM FEW050 SCT250=

USA.gov is the U.S. government's official web portal to all federal, state and local government web resources and services.